Terminal Aerodrome Forecast
Issued by NWS

Home | Current Version | Previous Version | Text Only | Print | Product List | Glossary On
Versions: 1 2 3 4 5 6 7 8 9 10 11 12 13 14 15 16
000
FTUS43 KEAX 290520
TAFSTJ
TAF
KSTJ 290520Z 2906/3006 27005KT P6SM FEW070 SCT250
      TEMPO 2906/2909 6SM -TSRA BKN040CB
     FM290900 36008KT P6SM SCT050 BKN150
     FM291000 35007KT P6SM SCT050 BKN080=

USA.gov is the U.S. government's official web portal to all federal, state and local government web resources and services.